createdAt,value
2023-03-11T00:00:47.398Z,21.00
2023-03-11T00:03:27.843Z,22.30
2023-03-11T00:05:56.608Z,21.50
2023-03-11T00:08:25.706Z,20.50
2023-03-11T00:11:00.534Z,20.70
2023-03-11T00:13:29.833Z,20.80
2023-03-11T00:15:59.683Z,20.20
2023-03-11T00:18:31.728Z,19.10
2023-03-11T00:21:00.934Z,19.60
2023-03-11T00:23:29.712Z,17.50
2023-03-11T00:25:59.992Z,16.40
2023-03-11T00:28:28.438Z,15.90
2023-03-11T00:30:56.734Z,16.40
2023-03-11T00:33:25.043Z,15.60
2023-03-11T00:35:53.237Z,15.20
2023-03-11T00:38:22.429Z,15.20
2023-03-11T00:40:50.863Z,15.40
2023-03-11T00:43:19.392Z,15.30
2023-03-11T00:45:47.497Z,15.20
2023-03-11T00:48:16.596Z,15.20
2023-03-11T00:50:44.921Z,15.70
2023-03-11T00:53:13.180Z,16.60
2023-03-11T00:55:41.376Z,16.00
2023-03-11T00:58:12.898Z,16.80
2023-03-11T01:00:44.673Z,15.70
2023-03-11T01:03:12.777Z,14.70
2023-03-11T01:05:40.886Z,15.40
2023-03-11T01:08:08.876Z,14.70
2023-03-11T01:10:37.070Z,14.20
2023-03-11T01:13:05.308Z,14.40
2023-03-11T01:15:36.477Z,13.20
2023-03-11T01:18:05.543Z,11.80
2023-03-11T01:20:37.723Z,11.90
2023-03-11T01:23:06.893Z,10.90
2023-03-11T01:25:36.213Z,9.90
2023-03-11T01:28:04.831Z,10.70
2023-03-11T01:30:32.910Z,10.30
2023-03-11T01:33:00.936Z,10.30
2023-03-11T01:35:31.429Z,10.50
2023-03-11T01:38:00.433Z,10.00
2023-03-11T01:40:43.833Z,10.30
2023-03-11T01:43:45.025Z,10.40
2023-03-11T01:46:28.643Z,9.60
2023-03-11T01:49:00.277Z,10.20
2023-03-11T01:51:40.620Z,10.60
2023-03-11T01:54:15.186Z,9.60
2023-03-11T01:56:44.848Z,9.50
2023-03-11T01:59:16.125Z,8.90
2023-03-11T02:01:59.809Z,8.60
2023-03-11T02:04:29.557Z,9.60
2023-03-11T02:06:57.689Z,7.80
2023-03-11T02:09:27.178Z,9.20
2023-03-11T02:11:56.767Z,9.90
2023-03-11T02:14:28.478Z,8.40
2023-03-11T02:16:58.632Z,9.60
2023-03-11T02:19:32.625Z,9.20
2023-03-11T02:22:01.680Z,9.30
2023-03-11T02:25:03.848Z,9.00
2023-03-11T02:27:34.682Z,9.20
2023-03-11T02:30:05.281Z,9.10
2023-03-11T02:32:34.976Z,8.70
2023-03-11T02:35:03.436Z,10.30
2023-03-11T02:37:31.642Z,9.40
2023-03-11T02:40:23.947Z,9.30
2023-03-11T02:42:58.374Z,9.20
2023-03-11T02:45:27.739Z,8.00
2023-03-11T02:47:58.626Z,8.40
2023-03-11T02:50:29.328Z,8.80
2023-03-11T02:52:57.479Z,7.90
2023-03-11T02:55:25.542Z,8.70
2023-03-11T02:57:53.447Z,7.60
2023-03-11T03:00:21.744Z,7.20
2023-03-11T03:02:55.895Z,6.60
2023-03-11T03:05:24.178Z,6.20
2023-03-11T03:07:52.471Z,7.00
2023-03-11T03:10:22.455Z,6.40
2023-03-11T03:12:50.900Z,6.10
2023-03-11T03:15:18.894Z,7.00
2023-03-11T03:17:47.370Z,7.00
2023-03-11T03:20:15.232Z,7.10
2023-03-11T03:22:47.342Z,7.40
2023-03-11T03:25:16.636Z,6.40
2023-03-11T03:27:44.864Z,6.70
2023-03-11T03:30:16.356Z,6.70
2023-03-11T03:32:45.121Z,6.50
2023-03-11T03:35:15.864Z,5.90
2023-03-11T03:38:01.841Z,5.80
2023-03-11T03:40:29.843Z,6.60
2023-03-11T03:42:59.344Z,5.60
2023-03-11T03:45:27.894Z,5.90
2023-03-11T03:47:56.062Z,5.20
2023-03-11T03:50:25.385Z,5.10
2023-03-11T03:52:54.548Z,5.60
2023-03-11T03:55:23.501Z,4.80
2023-03-11T03:57:52.225Z,5.60
2023-03-11T04:00:21.354Z,4.70
2023-03-11T04:02:51.511Z,5.10
2023-03-11T04:05:27.934Z,5.70
2023-03-11T04:07:56.140Z,5.90
2023-03-11T04:10:24.562Z,5.90
2023-03-11T04:12:53.036Z,5.90
2023-03-11T04:15:21.087Z,6.20
2023-03-11T04:17:49.338Z,6.30
2023-03-11T04:20:17.973Z,6.10
2023-03-11T04:22:48.092Z,6.30
2023-03-11T04:25:16.562Z,6.70
2023-03-11T04:27:46.333Z,6.60
2023-03-11T04:30:14.727Z,6.80
2023-03-11T04:32:43.902Z,6.00
2023-03-11T04:35:12.321Z,5.70
2023-03-11T04:37:41.028Z,6.10
2023-03-11T04:40:11.161Z,6.20
2023-03-11T04:42:39.275Z,5.60
2023-03-11T04:45:09.018Z,5.20
2023-03-11T04:47:37.303Z,5.20
2023-03-11T04:50:06.690Z,5.80
2023-03-11T04:52:35.091Z,4.90
2023-03-11T04:55:03.083Z,5.70
2023-03-11T04:57:32.742Z,5.70
2023-03-11T05:00:00.986Z,5.30
2023-03-11T05:02:30.350Z,5.30
2023-03-11T05:05:00.878Z,5.40
2023-03-11T05:07:29.727Z,4.80
2023-03-11T05:09:58.040Z,4.40
2023-03-11T05:12:26.582Z,4.30
2023-03-11T05:14:54.894Z,4.70
2023-03-11T05:17:25.152Z,4.40
2023-03-11T05:19:54.578Z,4.10
2023-03-11T05:22:25.849Z,3.10
2023-03-11T05:24:54.414Z,4.40
2023-03-11T05:27:23.249Z,3.60
2023-03-11T05:29:54.604Z,3.60
2023-03-11T05:32:23.157Z,3.20
2023-03-11T05:34:52.581Z,3.10
2023-03-11T05:37:20.588Z,3.20
2023-03-11T05:39:49.282Z,2.80
2023-03-11T05:42:18.155Z,3.30
2023-03-11T05:44:47.628Z,2.30
2023-03-11T05:47:17.364Z,2.40
2023-03-11T05:49:48.966Z,2.50
2023-03-11T05:52:18.246Z,2.30
2023-03-11T05:54:51.787Z,2.10
2023-03-11T05:57:22.582Z,2.50
2023-03-11T05:59:50.748Z,2.60
2023-03-11T06:02:21.025Z,2.00
2023-03-11T06:04:50.469Z,1.70
2023-03-11T06:07:18.818Z,1.50
2023-03-11T06:09:50.527Z,1.60
2023-03-11T06:12:19.264Z,1.30
2023-03-11T06:14:54.639Z,1.50
2023-03-11T06:17:22.850Z,1.20
2023-03-11T06:19:50.992Z,1.10
2023-03-11T06:22:19.040Z,1.30
2023-03-11T06:24:47.196Z,1.20
2023-03-11T06:27:15.268Z,1.20
2023-03-11T06:29:44.333Z,1.00
2023-03-11T06:32:12.878Z,1.10
2023-03-11T06:34:40.838Z,0.80
2023-03-11T06:37:09.213Z,1.10
2023-03-11T06:39:37.264Z,0.70
2023-03-11T06:42:09.657Z,0.90
2023-03-11T06:44:37.758Z,1.00
2023-03-11T06:47:06.135Z,1.00
2023-03-11T06:49:34.543Z,1.10
2023-03-11T06:52:02.738Z,2.10
2023-03-11T06:54:31.198Z,1.60
2023-03-11T06:56:59.947Z,1.50
2023-03-11T06:59:28.529Z,1.40
2023-03-11T07:01:57.003Z,1.50
2023-03-11T07:04:25.334Z,1.40
2023-03-11T07:06:53.735Z,2.20
2023-03-11T07:09:25.354Z,1.40
2023-03-11T07:11:53.680Z,1.50
2023-03-11T07:14:26.542Z,1.30
2023-03-11T07:16:56.815Z,1.30
2023-03-11T07:19:30.248Z,1.30
2023-03-11T07:21:58.302Z,1.10
2023-03-11T07:24:26.571Z,1.10
2023-03-11T07:26:54.820Z,1.50
2023-03-11T07:29:23.109Z,1.60
2023-03-11T07:31:51.177Z,2.00
2023-03-11T07:34:19.402Z,1.70
2023-03-11T07:36:47.381Z,2.40
2023-03-11T07:39:18.859Z,2.30
2023-03-11T07:41:47.856Z,3.20
2023-03-11T07:44:18.309Z,2.80
2023-03-11T07:46:47.493Z,3.10
2023-03-11T07:49:16.616Z,2.80
2023-03-11T07:51:45.378Z,3.50
2023-03-11T07:54:13.940Z,3.90
2023-03-11T07:56:42.582Z,3.50
2023-03-11T07:59:10.767Z,3.60
2023-03-11T08:01:41.552Z,3.80
2023-03-11T08:04:14.493Z,3.60
2023-03-11T08:06:48.017Z,2.80
2023-03-11T08:09:17.502Z,2.70
2023-03-11T08:11:47.507Z,2.80
2023-03-11T08:14:17.848Z,2.40
2023-03-11T08:16:46.423Z,2.10
2023-03-11T08:19:15.318Z,1.70
2023-03-11T08:21:44.328Z,1.80
2023-03-11T08:24:14.225Z,1.70
2023-03-11T08:26:42.564Z,1.80
2023-03-11T08:29:11.088Z,1.50
2023-03-11T08:31:40.045Z,1.70
2023-03-11T08:34:10.977Z,1.30
2023-03-11T08:36:39.616Z,1.20
2023-03-11T08:39:08.283Z,1.30
2023-03-11T08:41:37.162Z,1.40
2023-03-11T08:44:06.506Z,1.20
2023-03-11T08:46:40.104Z,1.10
2023-03-11T08:49:08.770Z,1.00
2023-03-11T08:51:37.774Z,0.90
2023-03-11T08:54:06.392Z,1.10
2023-03-11T08:56:34.991Z,1.10
2023-03-11T08:59:03.636Z,1.00
2023-03-11T09:01:36.184Z,0.90
2023-03-11T09:04:11.166Z,1.00
2023-03-11T09:06:44.940Z,1.00
2023-03-11T09:09:14.004Z,0.90
2023-03-11T09:11:42.780Z,0.80
2023-03-11T09:14:11.013Z,1.10
2023-03-11T09:16:39.865Z,0.90
2023-03-11T09:19:08.291Z,0.80
2023-03-11T09:21:37.576Z,1.00
2023-03-11T09:24:06.687Z,0.80
2023-03-11T09:26:35.358Z,0.90
2023-03-11T09:29:04.026Z,0.80
2023-03-11T09:31:32.625Z,1.00
2023-03-11T09:34:01.211Z,0.70
2023-03-11T09:36:30.035Z,1.00
2023-03-11T09:38:59.085Z,0.90
2023-03-11T09:41:32.686Z,0.80
2023-03-11T09:44:24.285Z,0.70
2023-03-11T09:47:02.959Z,0.80
2023-03-11T09:50:00.978Z,0.70
2023-03-11T09:52:50.127Z,0.70
2023-03-11T09:55:27.298Z,0.60
2023-03-11T09:57:58.818Z,0.80
2023-03-11T10:00:27.185Z,0.60
2023-03-11T10:02:56.264Z,1.00
2023-03-11T10:05:30.488Z,0.60
2023-03-11T10:08:11.977Z,0.90
2023-03-11T10:10:55.898Z,0.70
2023-03-11T10:14:03.498Z,1.00
2023-03-11T10:16:42.836Z,1.00
2023-03-11T10:19:17.101Z,1.20
2023-03-11T10:22:07.554Z,0.80
2023-03-11T10:25:20.017Z,0.70
2023-03-11T10:31:19.192Z,0.90
2023-03-11T10:34:04.743Z,1.00
2023-03-11T10:36:43.143Z,0.90
2023-03-11T10:39:12.229Z,1.00
2023-03-11T10:41:47.022Z,0.60
2023-03-11T10:44:23.382Z,0.80
2023-03-11T10:46:51.291Z,0.80
2023-03-11T10:49:19.602Z,0.70
2023-03-11T10:51:50.971Z,0.70
2023-03-11T10:54:24.567Z,0.90
2023-03-11T10:57:02.166Z,0.80
2023-03-11T10:59:46.381Z,0.90
2023-03-11T11:02:32.633Z,0.40
2023-03-11T11:05:20.209Z,0.80
2023-03-11T11:07:49.969Z,0.70
2023-03-11T11:10:22.787Z,0.70
2023-03-11T11:13:00.937Z,0.80
2023-03-11T11:15:31.115Z,0.70
2023-03-11T11:18:06.727Z,0.60
2023-03-11T11:20:35.458Z,0.50
2023-03-11T11:23:04.546Z,0.50
2023-03-11T11:25:38.835Z,0.70
2023-03-11T11:28:19.396Z,1.50
2023-03-11T11:30:58.811Z,1.00
2023-03-11T11:33:49.203Z,0.70
2023-03-11T11:36:19.811Z,0.80
2023-03-11T11:38:48.016Z,1.90
2023-03-11T11:41:20.673Z,0.70
2023-03-11T11:43:53.505Z,0.90
2023-03-11T11:46:31.638Z,0.50
2023-03-11T11:49:20.906Z,0.50
2023-03-11T11:52:07.294Z,0.40
2023-03-11T11:54:47.038Z,0.40
2023-03-11T11:57:18.274Z,0.50
2023-03-11T11:59:47.415Z,0.80
2023-03-11T12:02:46.801Z,0.80
2023-03-11T12:05:29.431Z,0.90
2023-03-11T12:08:18.294Z,0.50
2023-03-11T12:11:02.841Z,0.80
2023-03-11T12:14:04.619Z,1.00
2023-03-11T12:16:58.940Z,0.70
2023-03-11T12:19:45.147Z,0.60
2023-03-11T12:22:38.376Z,1.50
2023-03-11T12:25:10.217Z,0.90
2023-03-11T12:27:50.360Z,0.70
2023-03-11T12:30:22.154Z,0.60
2023-03-11T12:32:59.375Z,1.10
2023-03-11T12:35:30.947Z,0.80
2023-03-11T12:38:16.964Z,0.80
2023-03-11T12:40:44.995Z,1.00
2023-03-11T12:43:35.627Z,0.90
2023-03-11T12:46:06.554Z,0.90
2023-03-11T12:48:34.795Z,1.00
2023-03-11T12:51:03.013Z,1.30
2023-03-11T12:53:49.947Z,1.20
2023-03-11T12:56:30.834Z,1.10
2023-03-11T12:59:02.247Z,0.70
2023-03-11T13:02:21.314Z,0.90
2023-03-11T13:05:15.508Z,0.80
2023-03-11T13:08:03.910Z,1.00
2023-03-11T13:10:39.169Z,1.30
2023-03-11T13:13:41.257Z,1.00
2023-03-11T13:16:15.382Z,0.80
2023-03-11T13:18:46.874Z,1.10
2023-03-11T13:21:27.065Z,1.00
2023-03-11T13:24:28.058Z,1.00
2023-03-11T13:26:59.009Z,1.00
2023-03-11T13:29:41.492Z,1.10
2023-03-11T13:32:27.965Z,1.20
2023-03-11T13:35:04.033Z,0.90
2023-03-11T13:37:59.971Z,1.50
2023-03-11T13:40:33.427Z,1.20
2023-03-11T13:43:04.188Z,1.70
2023-03-11T13:45:38.150Z,1.60
2023-03-11T13:48:21.093Z,1.60
2023-03-11T13:51:32.318Z,1.30
2023-03-11T13:54:06.534Z,1.40
2023-03-11T13:56:43.892Z,1.40
2023-03-11T13:59:26.986Z,1.20
2023-03-11T14:02:15.202Z,1.80
2023-03-11T14:04:50.990Z,1.40
2023-03-11T14:07:38.686Z,1.60
2023-03-11T14:10:17.929Z,1.50
2023-03-11T14:12:46.435Z,1.30
2023-03-11T14:15:23.319Z,1.60
2023-03-11T14:17:53.184Z,1.70
2023-03-11T14:20:29.065Z,1.60
2023-03-11T14:22:57.151Z,1.40
2023-03-11T14:25:28.258Z,1.30
2023-03-11T14:28:00.038Z,1.30
2023-03-11T14:30:31.063Z,1.20
2023-03-11T14:33:06.287Z,1.30
2023-03-11T14:38:02.345Z,1.20
2023-03-11T14:40:42.184Z,1.40
2023-03-11T14:43:12.206Z,1.20
2023-03-11T14:45:42.469Z,1.10
2023-03-11T14:48:35.881Z,1.40
2023-03-11T14:51:06.318Z,0.90
2023-03-11T14:53:39.757Z,1.30
2023-03-11T14:56:17.834Z,1.30
2023-03-11T14:59:07.185Z,1.40
2023-03-11T15:01:43.034Z,1.20
2023-03-11T15:04:39.151Z,1.40
2023-03-11T15:07:07.194Z,1.40
2023-03-11T15:09:40.902Z,1.20
2023-03-11T15:12:37.523Z,1.30
2023-03-11T15:15:22.472Z,1.20
2023-03-11T15:17:59.372Z,1.10
2023-03-11T15:20:33.384Z,1.00
2023-03-11T15:23:04.004Z,1.30
2023-03-11T15:25:35.284Z,1.30
2023-03-11T15:28:25.425Z,1.20
2023-03-11T15:31:16.863Z,1.10
2023-03-11T15:33:45.981Z,1.20
2023-03-11T15:36:35.896Z,1.10
2023-03-11T15:39:16.138Z,1.20
2023-03-11T15:41:57.680Z,1.10
2023-03-11T15:44:41.112Z,1.50
2023-03-11T15:47:17.701Z,1.10
2023-03-11T15:49:46.966Z,1.50
2023-03-11T15:52:15.341Z,1.70
2023-03-11T15:54:54.483Z,1.30
2023-03-11T15:57:29.788Z,1.00
2023-03-11T16:00:00.096Z,1.10
2023-03-11T16:02:31.122Z,1.60
2023-03-11T16:05:00.698Z,1.50
2023-03-11T16:07:39.191Z,1.40
2023-03-11T16:10:11.039Z,1.10
2023-03-11T16:12:40.534Z,1.30
2023-03-11T16:15:28.974Z,1.30
2023-03-11T16:17:59.428Z,1.30
2023-03-11T16:20:32.767Z,1.40
2023-03-11T16:23:02.621Z,1.50
2023-03-11T16:25:30.597Z,1.50
2023-03-11T16:27:58.976Z,1.60
2023-03-11T16:30:29.023Z,1.60
2023-03-11T16:32:57.472Z,1.80
2023-03-11T16:35:26.483Z,1.90
2023-03-11T16:37:54.735Z,2.00
2023-03-11T16:40:28.426Z,1.70
2023-03-11T16:43:05.854Z,2.00
2023-03-11T16:45:34.053Z,1.70
2023-03-11T16:48:03.294Z,1.70
2023-03-11T16:50:32.197Z,1.40
2023-03-11T16:53:00.620Z,2.20
2023-03-11T16:55:28.946Z,1.60
2023-03-11T16:57:57.632Z,1.60
2023-03-11T17:00:26.200Z,2.00
2023-03-11T17:02:54.357Z,2.00
2023-03-11T17:05:22.449Z,1.90
2023-03-11T17:08:04.556Z,2.20
2023-03-11T17:10:40.332Z,2.10
2023-03-11T17:13:09.554Z,2.20
2023-03-11T17:15:44.555Z,1.70
2023-03-11T17:18:13.594Z,2.10
2023-03-11T17:20:43.674Z,2.10
2023-03-11T17:23:11.548Z,1.90
2023-03-11T17:25:41.162Z,2.00
2023-03-11T17:28:09.377Z,1.80
2023-03-11T17:30:42.960Z,1.30
2023-03-11T17:33:11.156Z,1.80
2023-03-11T17:35:39.327Z,1.40
2023-03-11T17:38:07.414Z,1.50
2023-03-11T17:40:35.555Z,1.60
2023-03-11T17:43:03.611Z,1.60
2023-03-11T17:45:31.680Z,1.70
2023-03-11T17:47:59.605Z,1.70
2023-03-11T17:50:27.554Z,1.80
2023-03-11T17:52:56.723Z,2.10
2023-03-11T17:55:24.886Z,1.90
2023-03-11T17:57:53.203Z,1.90
2023-03-11T18:00:22.134Z,1.90
2023-03-11T18:02:51.530Z,2.00
2023-03-11T18:05:20.631Z,1.80
2023-03-11T18:07:48.944Z,1.90
2023-03-11T18:10:17.161Z,1.60
2023-03-11T18:12:46.852Z,1.90
2023-03-11T18:15:19.487Z,1.70
2023-03-11T18:17:48.913Z,1.80
2023-03-11T18:20:17.223Z,1.50
2023-03-11T18:22:46.646Z,1.70
2023-03-11T18:25:14.987Z,2.00
2023-03-11T18:27:44.127Z,2.30
2023-03-11T18:30:13.288Z,1.60
2023-03-11T18:32:41.736Z,1.70
2023-03-11T18:35:10.639Z,1.80
2023-03-11T18:37:38.493Z,1.70
2023-03-11T18:40:07.530Z,1.70
2023-03-11T18:42:36.506Z,1.90
2023-03-11T18:45:05.771Z,1.70
2023-03-11T18:47:35.686Z,2.00
2023-03-11T18:50:04.903Z,2.40
2023-03-11T18:52:32.947Z,1.50
2023-03-11T18:55:03.158Z,2.10
2023-03-11T18:57:31.220Z,1.90
2023-03-11T18:59:59.289Z,2.40
2023-03-11T19:02:27.625Z,2.80
2023-03-11T19:04:55.887Z,2.30
2023-03-11T19:07:24.041Z,2.10
2023-03-11T19:09:52.065Z,2.10
2023-03-11T19:12:20.130Z,1.90
2023-03-11T19:14:48.146Z,2.10
2023-03-11T19:17:18.446Z,1.90
2023-03-11T19:19:46.421Z,1.60
2023-03-11T19:22:14.353Z,2.00
2023-03-11T19:24:42.461Z,1.60
2023-03-11T19:27:10.621Z,1.90
2023-03-11T19:29:38.717Z,2.10
2023-03-11T19:32:06.934Z,2.00
2023-03-11T19:34:35.044Z,1.90
2023-03-11T19:37:02.973Z,2.40
2023-03-11T19:39:31.104Z,1.90
2023-03-11T19:41:59.271Z,2.10
2023-03-11T19:44:27.348Z,2.20
2023-03-11T19:46:55.370Z,2.40
2023-03-11T19:49:23.502Z,2.90
2023-03-11T19:51:53.257Z,3.00
2023-03-11T19:54:21.266Z,2.40
2023-03-11T19:56:49.510Z,2.80
2023-03-11T19:59:17.559Z,2.30
2023-03-11T20:01:46.240Z,2.30
2023-03-11T20:04:15.412Z,2.20
2023-03-11T20:06:44.200Z,2.80
2023-03-11T20:09:13.340Z,1.60
2023-03-11T20:11:41.726Z,3.10
2023-03-11T20:14:10.932Z,1.30
2023-03-11T20:16:39.402Z,3.10
2023-03-11T20:19:07.873Z,2.50
2023-03-11T20:21:39.496Z,2.60
2023-03-11T20:24:08.289Z,2.10
2023-03-11T20:26:36.749Z,1.70
2023-03-11T20:29:05.751Z,1.40
2023-03-11T20:31:33.907Z,1.30
2023-03-11T20:34:02.471Z,1.20
2023-03-11T20:36:33.362Z,1.40
2023-03-11T20:39:01.587Z,1.80
2023-03-11T20:41:35.204Z,1.40
2023-03-11T20:44:04.840Z,1.60
2023-03-11T20:46:34.060Z,1.70
2023-03-11T20:49:02.693Z,2.10
2023-03-11T20:51:31.061Z,1.80
2023-03-11T20:53:59.065Z,2.00
2023-03-11T20:56:27.472Z,2.30
2023-03-11T20:58:58.720Z,2.60
2023-03-11T21:01:29.443Z,1.90
2023-03-11T21:04:00.845Z,1.70
2023-03-11T21:06:33.346Z,2.70
2023-03-11T21:09:05.027Z,2.50
2023-03-11T21:11:33.959Z,2.60
2023-03-11T21:14:02.328Z,2.40
2023-03-11T21:16:30.669Z,2.30
2023-03-11T21:18:58.939Z,1.70
2023-03-11T21:21:27.052Z,2.00
2023-03-11T21:23:55.059Z,2.40
2023-03-11T21:26:23.369Z,2.10
2023-03-11T21:28:51.308Z,2.20
2023-03-11T21:31:21.569Z,1.70
2023-03-11T21:33:53.189Z,2.10
2023-03-11T21:36:21.864Z,1.90
2023-03-11T21:38:50.624Z,1.70
2023-03-11T21:41:21.689Z,1.90
2023-03-11T21:43:50.017Z,2.10
2023-03-11T21:46:22.221Z,1.90
2023-03-11T21:48:50.593Z,2.20
2023-03-11T21:51:19.844Z,1.80
2023-03-11T21:53:48.105Z,1.90
2023-03-11T21:56:16.450Z,1.70
2023-03-11T21:58:44.674Z,2.10
2023-03-11T22:01:13.355Z,2.20
2023-03-11T22:03:42.069Z,1.50
2023-03-11T22:06:12.691Z,1.90
2023-03-11T22:08:42.540Z,1.90
2023-03-11T22:11:18.537Z,1.80
2023-03-11T22:13:48.754Z,1.90
2023-03-11T22:16:19.043Z,1.90
2023-03-11T22:18:47.910Z,1.90
2023-03-11T22:21:16.861Z,1.90
2023-03-11T22:23:45.300Z,1.70
2023-03-11T22:26:14.428Z,1.80
2023-03-11T22:28:43.243Z,1.80
2023-03-11T22:31:14.030Z,1.50
2023-03-11T22:33:42.084Z,1.70
2023-03-11T22:36:10.373Z,1.80
2023-03-11T22:38:41.398Z,1.80
2023-03-11T22:41:11.203Z,1.70
2023-03-11T22:43:40.149Z,1.80
2023-03-11T22:46:08.181Z,1.90
2023-03-11T22:48:36.721Z,1.60
2023-03-11T22:51:06.352Z,1.60
2023-03-11T22:53:34.248Z,1.60
2023-03-11T22:56:10.854Z,1.60
2023-03-11T22:58:38.841Z,1.70
2023-03-11T23:01:07.321Z,1.70
2023-03-11T23:03:36.122Z,2.00
2023-03-11T23:06:07.912Z,2.20
2023-03-11T23:08:36.691Z,2.10
2023-03-11T23:11:07.750Z,1.70
2023-03-11T23:13:36.286Z,1.50
2023-03-11T23:16:10.812Z,1.60
2023-03-11T23:18:38.684Z,1.60
2023-03-11T23:21:25.138Z,1.50
2023-03-11T23:23:54.503Z,1.00
2023-03-11T23:26:23.835Z,1.50
2023-03-11T23:28:52.477Z,1.50
2023-03-11T23:31:22.971Z,1.80
2023-03-11T23:33:52.110Z,1.70
2023-03-11T23:36:22.805Z,1.60
2023-03-11T23:38:51.077Z,1.80
2023-03-11T23:41:23.911Z,1.80
2023-03-11T23:43:52.473Z,1.70
2023-03-11T23:46:20.622Z,1.60
2023-03-11T23:48:48.634Z,1.60
2023-03-11T23:51:16.543Z,1.50
2023-03-11T23:53:44.724Z,1.80
2023-03-11T23:56:18.070Z,1.60
2023-03-11T23:58:46.827Z,1.60
